Time;durP1;ratioP1;P1;durP2;ratioP2;P2;SDS_P1;SDS_P2;PMS_P1;PMS_P2;Temp;Humidity;BMP_temperature;BMP_pressure;BME280_temperature;BME280_humidity;BME280_pressure;Samples;Min_cycle;Max_cycle;Signal;HPM_P1;HPM_P2
2022/01/10 00:01:00;;;;;;;17.27;10.23;;;;;;;2.66;86.95;98135.16;4866442;29;20045;-85
2022/01/10 00:03:26;;;;;;;21.65;10.80;;;;;;;2.83;87.11;98145.94;4843673;29;20487;-86
2022/01/10 00:05:51;;;;;;;17.38;9.88;;;;;;;2.83;86.99;98157.31;4849194;29;20037;-86
2022/01/10 00:08:17;;;;;;;20.17;10.73;;;;;;;2.53;87.15;98116.81;4835805;29;20518;-85
2022/01/10 00:10:43;;;;;;;25.83;12.38;;;;;;;2.82;86.95;98168.84;4855500;29;20057;-86
2022/01/10 00:13:09;;;;;;;18.67;11.38;;;;;;;2.36;87.21;98097.28;4853922;29;20029;-86
2022/01/10 00:15:35;;;;;;;20.58;11.90;;;;;;;2.86;87.33;98177.16;4827482;29;20385;-87
2022/01/10 00:18:00;;;;;;;22.58;11.25;;;;;;;2.62;87.30;98149.75;4843689;29;20026;-88
2022/01/10 00:20:26;;;;;;;19.73;11.50;;;;;;;2.85;87.04;98176.34;4829016;29;20129;-88
2022/01/10 00:22:51;;;;;;;16.80;10.27;;;;;;;2.87;87.12;98181.38;4844187;29;20030;-86
2022/01/10 00:25:20;;;;;;;17.42;11.50;;;;;;;2.88;87.32;98186.44;4859252;29;20033;-86
2022/01/10 00:27:47;;;;;;;20.58;11.52;;;;;;;2.85;87.21;98183.44;4844167;29;20036;-86
2022/01/10 00:30:13;;;;;;;16.27;11.15;;;;;;;2.87;87.16;98182.19;4844132;29;20033;-87
2022/01/10 00:32:41;;;;;;;19.13;10.43;;;;;;;2.41;87.18;98115.06;4859198;29;20032;-88
2022/01/10 00:35:07;;;;;;;22.65;11.25;;;;;;;2.33;86.99;98091.66;4843967;29;20133;-87
2022/01/10 00:37:34;;;;;;;20.27;11.45;;;;;;;2.78;87.32;98174.75;4858963;29;20078;-88
2022/01/10 00:40:00;;;;;;;21.98;13.10;;;;;;;2.89;87.26;98200.41;4844061;29;20638;-88
2022/01/10 00:42:26;;;;;;;19.33;11.85;;;;;;;2.88;87.45;98194.34;4859053;29;20030;-87
2022/01/10 00:44:53;;;;;;;20.30;11.82;;;;;;;2.44;87.40;98139.19;4828584;29;20029;-88
2022/01/10 00:47:19;;;;;;;19.40;11.82;;;;;;;2.88;87.29;98202.25;4844085;29;20044;-87
2022/01/10 00:49:46;;;;;;;25.40;12.15;;;;;;;2.87;87.09;98213.81;4858932;29;20083;-87
2022/01/10 00:52:12;;;;;;;24.95;13.15;;;;;;;2.90;87.26;98220.50;4859065;29;20117;-88
2022/01/10 00:54:38;;;;;;;21.80;13.05;;;;;;;2.89;86.94;98219.69;4854204;29;20026;-86
2022/01/10 00:57:04;;;;;;;19.50;12.85;;;;;;;2.89;87.32;98219.69;4835801;29;20057;-86
2022/01/10 00:59:30;;;;;;;26.52;13.27;;;;;;;2.89;87.38;98224.13;4837082;29;20068;-85
2022/01/10 01:01:56;;;;;;;27.88;14.35;;;;;;;2.88;87.36;98227.81;4853036;29;20065;-86
2022/01/10 01:04:21;;;;;;;22.83;13.63;;;;;;;2.65;87.19;98188.84;4843794;29;20034;-86
2022/01/10 01:06:48;;;;;;;22.65;13.23;;;;;;;2.87;87.43;98240.16;4851894;29;20423;-86
2022/01/10 01:09:16;;;;;;;29.20;13.45;;;;;;;2.81;87.14;98234.94;4852160;29;20414;-86
2022/01/10 01:14:22;;;;;;;25.48;14.68;;;;;;;2.79;87.35;98243.06;4858100;29;20517;-86
2022/01/10 01:16:56;;;;;;;27.75;14.85;;;;;;;2.87;87.54;98263.06;4847455;29;20070;-86
2022/01/10 01:24:33;;;;;;;33.33;16.05;;;;;;;2.86;87.85;98279.91;4861667;29;20516;-86
2022/01/10 01:26:58;;;;;;;30.23;17.23;;;;;;;2.85;87.67;98281.75;4845591;29;20030;-86
2022/01/10 01:29:26;;;;;;;29.08;15.85;;;;;;;2.55;87.44;98243.84;4861138;29;20164;-87
2022/01/10 01:31:52;;;;;;;28.10;15.57;;;;;;;2.89;87.72;98292.66;4845726;29;20077;-87
2022/01/10 01:34:19;;;;;;;28.35;15.90;;;;;;;2.91;88.09;98299.31;4860356;29;20025;-88
2022/01/10 01:36:49;;;;;;;32.35;17.00;;;;;;;2.84;87.69;98287.22;4828735;29;20021;-85
2022/01/10 01:39:25;;;;;;;29.10;16.40;;;;;;;2.89;87.49;98298.75;4844265;29;20041;-87
2022/01/10 01:42:00;;;;;;;35.95;15.15;;;;;;;2.93;87.11;98305.19;4832049;29;20034;-87
2022/01/10 01:44:26;;;;;;;31.67;17.00;;;;;;;2.88;87.76;98309.50;4831630;29;20174;-86
2022/01/10 01:46:51;;;;;;;25.42;16.30;;;;;;;2.88;87.38;98309.50;4845398;29;20128;-87
2022/01/10 01:49:17;;;;;;;30.45;15.93;;;;;;;2.95;87.55;98318.16;4829997;29;20061;-88
2022/01/10 01:51:42;;;;;;;32.08;16.80;;;;;;;2.96;87.65;98319.78;4844096;29;20041;-86
2022/01/10 01:54:09;;;;;;;26.05;16.60;;;;;;;2.81;87.72;98303.47;4843804;29;20113;-87
2022/01/10 01:56:36;;;;;;;26.80;15.02;;;;;;;2.98;87.89;98334.38;4844262;29;20037;-88
2022/01/10 01:59:03;;;;;;;25.17;15.90;;;;;;;2.97;87.43;98334.59;4830157;29;20057;-87
2022/01/10 02:01:29;;;;;;;29.20;16.23;;;;;;;2.97;87.69;98324.03;4860396;29;20033;-87
2022/01/10 02:03:54;;;;;;;32.05;17.38;;;;;;;2.96;87.76;98323.22;4845085;29;20030;-86
2022/01/10 02:06:20;;;;;;;32.60;17.55;;;;;;;2.96;87.65;98327.69;4860503;29;20036;-87
2022/01/10 02:08:46;;;;;;;37.92;18.85;;;;;;;2.95;87.65;98323.41;4860536;29;20052;-87
2022/01/10 02:11:14;;;;;;;31.67;17.30;;;;;;;2.93;87.52;98331.56;4860367;29;20029;-88
2022/01/10 02:13:40;;;;;;;35.15;18.33;;;;;;;2.93;87.81;98342.09;4821577;29;1144806;-87
2022/01/10 02:16:09;;;;;;;31.17;17.75;;;;;;;2.86;87.54;98332.63;4861427;29;20049;-87
2022/01/10 02:18:35;;;;;;;35.38;17.02;;;;;;;2.95;87.56;98349.78;4846339;29;20041;-87
2022/01/10 02:21:05;;;;;;;29.77;18.17;;;;;;;2.80;87.33;98331.63;4845858;29;20033;-88
2022/01/10 02:23:31;;;;;;;29.23;17.80;;;;;;;2.94;87.17;98354.25;4846476;29;20052;-87
2022/01/10 02:25:57;;;;;;;33.05;17.73;;;;;;;2.95;87.78;98365.59;4845933;29;20100;-86
2022/01/10 02:28:23;;;;;;;27.60;17.23;;;;;;;2.95;87.63;98363.78;4845913;29;20034;-87
2022/01/10 02:30:55;;;;;;;30.27;17.35;;;;;;;2.95;87.98;98368.22;4846108;29;20441;-87
2022/01/10 02:33:21;;;;;;;29.98;15.93;;;;;;;2.95;87.68;98374.31;4846695;29;20041;-87
2022/01/10 02:36:31;;;;;;;29.55;17.25;;;;;;;2.95;87.76;98374.31;4861482;29;20021;-87
2022/01/10 02:38:32;;;;;;;28.75;18.45;;;;;;;2.95;87.37;98379.59;4858353;29;20042;-87
2022/01/10 02:40:59;;;;;;;24.08;17.33;;;;;;;2.96;87.99;98383.84;4845629;29;20081;-87
2022/01/10 02:43:24;;;;;;;27.88;17.30;;;;;;;2.96;87.49;98383.03;4860864;29;20032;-87
2022/01/10 02:45:50;;;;;;;26.90;17.15;;;;;;;2.98;87.84;98392.34;4845401;29;20038;-87
2022/01/10 02:48:15;;;;;;;28.15;16.50;;;;;;;2.99;87.28;98390.53;4830017;29;20029;-86
2022/01/10 02:50:41;;;;;;;27.65;17.20;;;;;;;2.99;87.49;98398.44;4845358;29;20041;-87
2022/01/10 02:53:06;;;;;;;26.48;17.52;;;;;;;3.00;87.41;98398.22;4845391;29;20096;-87
2022/01/10 02:55:32;;;;;;;34.35;17.83;;;;;;;3.00;87.43;98406.13;4860805;29;20094;-87
2022/01/10 02:57:57;;;;;;;27.77;16.48;;;;;;;3.01;87.80;98413.00;4860846;29;20509;-87
2022/01/10 03:00:25;;;;;;;32.35;17.58;;;;;;;2.98;87.54;98402.91;4844987;29;20040;-87
2022/01/10 03:02:53;;;;;;;28.15;15.52;;;;;;;3.02;87.60;98409.34;4829983;29;20034;-88
2022/01/10 03:05:21;;;;;;;31.83;18.05;;;;;;;3.02;87.55;98409.34;4860971;29;20072;-87
2022/01/10 03:07:48;;;;;;;29.80;16.33;;;;;;;3.04;87.25;98415.22;4860177;29;20050;-87
2022/01/10 03:10:14;;;;;;;31.15;17.27;;;;;;;2.87;87.60;98400.94;4860267;29;20033;-88
2022/01/10 03:12:40;;;;;;;26.50;17.33;;;;;;;3.02;87.51;98427.81;4860218;29;20101;-87
2022/01/10 03:15:07;;;;;;;33.13;16.50;;;;;;;3.03;87.53;98432.09;4860160;29;20055;-87
2022/01/10 03:17:34;;;;;;;34.88;17.83;;;;;;;3.04;87.44;98438.13;4844777;29;20036;-87
2022/01/10 03:20:00;;;;;;;32.33;17.73;;;;;;;3.04;87.34;98438.94;4860178;29;20037;-87
2022/01/10 03:22:26;;;;;;;32.72;18.98;;;;;;;3.04;87.56;98440.78;4829731;29;20034;-88
2022/01/10 03:24:53;;;;;;;36.13;18.15;;;;;;;3.03;87.46;98437.34;4844602;29;20065;-88
2022/01/10 03:27:19;;;;;;;35.67;18.42;;;;;;;3.03;88.05;98447.91;4842474;29;20060;-85
2022/01/10 03:29:44;;;;;;;29.63;19.23;;;;;;;3.04;87.44;98438.13;4843713;29;20029;-88
2022/01/10 03:32:11;;;;;;;42.28;19.75;;;;;;;3.01;87.54;98443.84;4828788;29;20036;-87
2022/01/10 03:34:37;;;;;;;42.85;19.70;;;;;;;3.00;88.31;98453.56;4829638;29;20041;-88
2022/01/10 03:37:02;;;;;;;43.10;20.60;;;;;;;2.98;87.81;98442.44;4844565;29;20029;-87
2022/01/10 03:39:27;;;;;;;49.30;22.50;;;;;;;2.65;87.77;98396.97;4829420;29;20060;-87
2022/01/10 03:41:53;;;;;;;43.00;20.23;;;;;;;2.98;87.94;98450.34;4859673;29;20069;-86
2022/01/10 03:44:18;;;;;;;42.03;23.88;;;;;;;2.98;88.03;98463.53;4829313;29;20045;-86
2022/01/10 03:46:44;;;;;;;41.15;22.38;;;;;;;2.97;88.04;98458.47;4844553;29;20048;-87
2022/01/10 03:49:09;;;;;;;42.47;22.88;;;;;;;2.96;87.97;98472.66;4859739;29;20029;-87
2022/01/10 03:51:35;;;;;;;41.13;22.98;;;;;;;2.97;87.97;98476.91;4829501;29;20060;-87
2022/01/10 03:54:01;;;;;;;49.85;22.10;;;;;;;2.96;87.88;98488.47;4859599;29;20034;-88
2022/01/10 03:56:29;;;;;;;39.00;22.40;;;;;;;2.90;88.29;98482.22;4859870;29;20089;-87
2022/01/10 03:58:55;;;;;;;40.05;21.35;;;;;;;2.99;88.10;98494.13;4844460;29;20057;-88
2022/01/10 04:01:20;;;;;;;44.35;22.35;;;;;;;3.00;87.86;98493.13;4859533;29;20043;-88
2022/01/10 04:03:46;;;;;;;39.05;22.25;;;;;;;3.01;88.23;98500.00;4859523;29;20117;-88
2022/01/10 04:06:11;;;;;;;40.08;21.02;;;;;;;3.02;87.86;98503.44;4844155;29;20462;-87
2022/01/10 04:08:37;;;;;;;41.13;20.67;;;;;;;3.02;87.74;98511.34;4844202;29;20034;-88
2022/01/10 04:11:03;;;;;;;44.25;22.95;;;;;;;3.02;87.67;98509.53;4843964;29;20073;-88
2022/01/10 05:15:30;;;;;;;34.38;18.45;;;;;;;2.85;88.21;98613.78;4860430;29;20045;-85
2022/01/10 05:17:55;;;;;;;30.73;18.15;;;;;;;3.04;88.07;98646.41;4829677;29;20410;-86
2022/01/10 05:20:21;;;;;;;33.65;16.98;;;;;;;3.04;88.05;98644.56;4829795;29;20097;-85
2022/01/10 05:22:46;;;;;;;35.50;18.88;;;;;;;3.00;88.30;98650.47;4827676;29;20114;-85
2022/01/10 05:25:12;;;;;;;31.08;18.80;;;;;;;2.91;87.89;98631.41;4858796;29;20117;-86
2022/01/10 05:27:37;;;;;;;34.63;17.80;;;;;;;3.07;88.25;98650.44;4843275;29;20034;-85
2022/01/10 05:30:04;;;;;;;27.63;16.52;;;;;;;2.98;87.94;98649.88;4828184;29;20034;-85
2022/01/10 05:32:30;;;;;;;36.60;18.95;;;;;;;3.04;87.63;98654.31;4843655;29;20051;-85
2022/01/10 05:34:55;;;;;;;32.97;17.73;;;;;;;3.05;87.59;98671.75;4842928;29;20101;-85
2022/01/10 05:37:21;;;;;;;34.97;18.52;;;;;;;3.04;87.62;98675.41;4842675;29;20041;-85
2022/01/10 05:39:46;;;;;;;40.20;19.65;;;;;;;3.03;87.36;98689.59;4841819;29;20121;-85
2022/01/10 05:42:11;;;;;;;40.40;19.83;;;;;;;3.02;87.55;98694.06;4827215;29;20034;-85
2022/01/10 05:44:37;;;;;;;33.03;16.70;;;;;;;2.84;87.50;98678.03;4827399;29;20038;-85
2022/01/10 05:47:03;;;;;;;32.67;18.38;;;;;;;3.04;87.56;98702.56;4827618;29;20042;-85
2022/01/10 05:49:33;;;;;;;33.05;17.90;;;;;;;2.99;87.63;98707.63;4860716;29;20042;-84
2022/01/10 05:51:59;;;;;;;30.05;16.88;;;;;;;3.04;87.73;98720.22;4846169;29;20040;-85
2022/01/10 05:54:24;;;;;;;29.02;17.08;;;;;;;3.04;87.58;98725.47;4846514;29;20021;-85
2022/01/10 05:56:52;;;;;;;32.03;17.35;;;;;;;2.98;88.16;98724.47;4830676;29;20121;-85
2022/01/10 05:59:17;;;;;;;30.27;18.00;;;;;;;3.04;87.91;98738.66;4830754;29;20030;-85
2022/01/10 06:01:43;;;;;;;32.65;15.90;;;;;;;3.00;87.65;98733.00;4846634;29;20033;-86
2022/01/10 06:04:08;;;;;;;31.38;17.00;;;;;;;2.96;87.94;98741.50;4861360;29;20038;-86
2022/01/10 06:06:34;;;;;;;36.75;17.35;;;;;;;3.02;87.85;98754.69;4845755;29;20029;-85
2022/01/10 06:08:59;;;;;;;28.65;17.42;;;;;;;2.88;87.69;98742.50;4835754;29;20098;-86
2022/01/10 06:11:25;;;;;;;32.15;19.20;;;;;;;2.67;87.94;98707.63;4830547;29;20044;-86
2022/01/10 06:13:50;;;;;;;29.25;16.95;;;;;;;3.03;87.92;98764.25;4830849;29;20038;-87
2022/01/10 06:16:16;;;;;;;30.85;17.13;;;;;;;3.04;87.93;98773.75;4846174;29;20124;-86
2022/01/10 06:18:41;;;;;;;30.75;17.60;;;;;;;3.05;87.78;98774.56;4830926;29;20048;-86
2022/01/10 06:21:08;;;;;;;29.83;16.73;;;;;;;3.06;87.81;98783.31;4845100;29;20559;-86
2022/01/10 06:23:33;;;;;;;27.20;16.67;;;;;;;2.73;87.70;98739.25;4845605;29;20041;-86
2022/01/10 06:25:59;;;;;;;33.30;17.95;;;;;;;2.97;87.86;98780.06;4830116;29;20483;-86
2022/01/10 06:28:24;;;;;;;35.20;17.48;;;;;;;3.08;88.07;98797.09;4829729;29;20086;-85
2022/01/10 06:30:50;;;;;;;28.77;16.55;;;;;;;2.97;87.43;98790.59;4844921;29;20030;-87
2022/01/10 06:33:15;;;;;;;33.55;19.33;;;;;;;3.08;87.35;98815.56;4845353;29;20456;-86
2022/01/10 06:35:41;;;;;;;32.60;16.83;;;;;;;3.08;87.66;98812.91;4859144;29;20037;-86
2022/01/10 06:38:06;;;;;;;36.45;16.70;;;;;;;3.01;87.56;98805.78;4859292;29;20073;-86
2022/01/10 06:40:31;;;;;;;26.83;15.85;;;;;;;2.68;87.47;98757.50;4845264;29;20042;-86
2022/01/10 06:42:57;;;;;;;25.90;16.13;;;;;;;2.95;87.40;98805.78;4845206;29;20038;-86
2022/01/10 06:45:23;;;;;;;30.65;15.95;;;;;;;3.08;87.72;98826.88;4844700;29;20041;-85
2022/01/10 06:47:49;;;;;;;29.25;16.35;;;;;;;3.08;87.82;98837.44;4859940;29;20497;-86
2022/01/10 06:50:15;;;;;;;37.10;17.27;;;;;;;3.08;87.58;98841.91;4829772;29;20040;-86
2022/01/10 06:52:41;;;;;;;33.58;18.67;;;;;;;3.09;87.72;98846.97;4860469;29;20030;-86
2022/01/10 06:55:07;;;;;;;29.48;16.85;;;;;;;3.05;87.72;98840.50;4845410;29;20042;-86
2022/01/10 06:57:33;;;;;;;26.23;16.40;;;;;;;3.10;87.53;98863.63;4843896;29;20022;-85
2022/01/10 06:59:58;;;;;;;30.35;16.88;;;;;;;3.00;87.83;98849.00;4843374;29;20033;-86
2022/01/10 07:02:23;;;;;;;28.17;17.10;;;;;;;2.99;87.40;98850.00;4844715;29;20037;-85
2022/01/10 07:04:49;;;;;;;30.52;18.00;;;;;;;3.03;87.52;98859.16;4844982;29;20073;-85
2022/01/10 07:07:15;;;;;;;24.35;16.55;;;;;;;3.09;87.83;98883.06;4861027;29;20026;-85
2022/01/10 07:09:40;;;;;;;34.60;18.13;;;;;;;3.10;87.93;98882.06;4844830;29;20034;-85
2022/01/10 07:12:06;;;;;;;30.38;16.92;;;;;;;3.09;88.10;98873.34;4845382;29;20034;-85
2022/01/10 07:14:34;;;;;;;30.77;17.17;;;;;;;3.09;87.61;98883.06;4830761;29;20037;-85
2022/01/10 07:16:59;;;;;;;29.38;17.10;;;;;;;3.08;87.55;98892.81;4860193;29;20294;-88
2022/01/10 07:19:27;;;;;;;28.58;16.85;;;;;;;3.07;87.88;98896.47;4841724;29;20076;-85
2022/01/10 07:21:53;;;;;;;30.63;17.95;;;;;;;3.07;87.98;98906.19;4836018;29;20198;-86
2022/01/10 07:24:19;;;;;;;39.20;17.95;;;;;;;3.08;87.69;98921.00;4827417;29;20061;-86
2022/01/10 07:26:45;;;;;;;34.45;17.30;;;;;;;3.07;88.19;98914.09;4843749;29;20550;-86
2022/01/10 07:29:12;;;;;;;38.28;19.20;;;;;;;3.08;87.62;98913.91;4845810;29;20042;-86
2022/01/10 07:31:39;;;;;;;31.75;18.40;;;;;;;3.04;87.82;98924.03;4837918;29;20041;-85
2022/01/10 07:34:05;;;;;;;34.65;18.40;;;;;;;2.76;87.91;98878.53;4845578;29;20030;-89
2022/01/10 07:36:31;;;;;;;37.67;17.88;;;;;;;2.56;87.73;98850.47;4862325;29;20042;-87
2022/01/10 07:38:57;;;;;;;39.63;20.65;;;;;;;2.88;87.49;98913.84;4861268;29;20032;-88
2022/01/10 07:41:23;;;;;;;29.90;17.45;;;;;;;2.88;87.48;98911.19;4846516;29;20038;-88
2022/01/10 07:43:56;;;;;;;32.88;17.95;;;;;;;2.66;87.83;98887.81;4861273;29;20026;-87
2022/01/10 07:46:22;;;;;;;35.22;20.42;;;;;;;3.04;87.70;98939.84;4861360;29;20038;-88
2022/01/10 07:48:49;;;;;;;36.58;18.75;;;;;;;2.57;88.07;98862.66;4860389;29;20081;-88
2022/01/10 07:51:15;;;;;;;39.92;19.88;;;;;;;2.88;87.55;98919.09;4860568;29;20034;-88
2022/01/10 07:53:41;;;;;;;37.47;17.67;;;;;;;2.74;87.77;98900.81;4845245;29;20455;-88
2022/01/10 07:56:07;;;;;;;35.33;18.60;;;;;;;2.88;87.59;98934.91;4861517;29;20475;-88
2022/01/10 07:58:35;;;;;;;36.65;19.17;;;;;;;2.71;87.60;98898.59;4845011;29;20402;-87
2022/01/10 08:01:00;;;;;;;30.58;17.83;;;;;;;2.41;87.62;98855.91;4845358;29;20431;-87
2022/01/10 08:03:26;;;;;;;36.50;20.75;;;;;;;2.47;87.67;98865.63;4846528;29;20022;-88
2022/01/10 08:05:52;;;;;;;34.35;18.15;;;;;;;2.49;87.83;98871.53;4845000;29;20037;-88
2022/01/10 08:08:18;;;;;;;36.35;19.20;;;;;;;2.50;87.64;98878.44;4860619;29;20025;-87
2022/01/10 08:10:44;;;;;;;39.17;21.02;;;;;;;2.91;87.71;98944.25;4860349;29;20033;-88
2022/01/10 08:13:10;;;;;;;42.15;21.45;;;;;;;2.64;87.53;98901.19;4844337;29;20038;-88
2022/01/10 08:15:36;;;;;;;43.28;20.05;;;;;;;2.93;87.67;98947.50;4856417;29;20048;-88
2022/01/10 08:18:03;;;;;;;36.78;19.63;;;;;;;2.50;87.68;98890.78;4828783;29;20045;-88
2022/01/10 08:20:29;;;;;;;45.03;22.25;;;;;;;2.52;88.12;98902.75;4843387;29;20037;-88
2022/01/10 08:22:54;;;;;;;40.88;21.50;;;;;;;2.71;87.54;98935.47;4844410;29;20026;-89
2022/01/10 08:25:21;;;;;;;38.88;20.77;;;;;;;2.62;87.40;98926.91;4859867;29;20122;-88
2022/01/10 08:27:46;;;;;;;41.15;19.80;;;;;;;3.21;87.93;99034.44;4844293;29;20060;-87
2022/01/10 08:30:12;;;;;;;37.65;19.85;;;;;;;2.67;87.88;98940.31;4829106;29;20046;-88
2022/01/10 08:32:37;;;;;;;45.30;21.42;;;;;;;2.74;88.08;98959.59;4844248;29;20110;-86
2022/01/10 08:35:05;;;;;;;34.45;20.40;;;;;;;3.24;87.81;99034.03;4825152;29;20038;-87
2022/01/10 08:37:30;;;;;;;42.83;20.92;;;;;;;2.89;87.91;98984.00;4822386;29;20030;-86
2022/01/10 08:39:56;;;;;;;38.25;20.25;;;;;;;3.25;88.23;99047.03;4854799;29;20109;-87
2022/01/10 08:42:23;;;;;;;44.25;21.80;;;;;;;3.26;87.94;99056.56;4854574;29;20047;-86
2022/01/10 08:44:50;;;;;;;42.55;21.23;;;;;;;3.29;87.92;99064.09;4849480;29;20395;-87
2022/01/10 08:47:16;;;;;;;44.75;21.55;;;;;;;3.31;88.00;99064.72;4829601;29;20030;-85
2022/01/10 08:49:42;;;;;;;43.20;21.73;;;;;;;3.32;87.80;99074.25;4857706;29;20097;-87
2022/01/10 08:52:08;;;;;;;40.40;23.40;;;;;;;3.21;87.99;99056.34;4865952;23;20125;-88
2022/01/10 08:54:37;;;;;;;37.55;20.40;;;;;;;3.21;87.85;99052.91;4855051;29;20538;-88
2022/01/10 08:57:03;;;;;;;42.00;20.60;;;;;;;3.22;87.92;99059.78;4838759;29;20033;-89
2022/01/10 08:59:29;;;;;;;41.70;21.65;;;;;;;3.27;87.79;99068.75;4859001;29;20048;-87
2022/01/10 09:01:59;;;;;;;40.60;19.27;;;;;;;3.42;87.72;99090.53;4821457;29;20042;-90
2022/01/10 09:04:24;;;;;;;39.42;20.70;;;;;;;3.44;87.70;99096.44;4812820;29;20590;-88
2022/01/10 09:06:52;;;;;;;37.33;20.73;;;;;;;3.45;87.93;99099.88;4854909;29;20113;-89
2022/01/10 09:09:19;;;;;;;40.20;21.15;;;;;;;3.33;87.69;99091.72;4854496;29;20045;-87
2022/01/10 09:11:45;;;;;;;35.45;20.35;;;;;;;3.48;88.38;99102.13;4843789;29;20042;-88
2022/01/10 09:14:12;;;;;;;43.75;21.85;;;;;;;3.49;88.09;99109.03;4852964;29;20145;-89
2022/01/10 09:16:39;;;;;;;38.38;19.45;;;;;;;3.24;87.96;99071.78;4841393;29;20461;-89
2022/01/10 09:19:05;;;;;;;37.72;20.85;;;;;;;3.49;87.91;99111.66;4831629;29;20041;-88
2022/01/10 09:21:30;;;;;;;41.05;20.65;;;;;;;3.54;88.24;99117.16;4817057;29;20045;-88
2022/01/10 09:23:56;;;;;;;33.10;21.70;;;;;;;3.55;88.21;99126.72;4840464;29;20037;-88
2022/01/10 09:26:23;;;;;;;38.55;20.77;;;;;;;3.50;87.80;99116.75;4843108;29;20060;-88
2022/01/10 09:28:49;;;;;;;36.97;21.08;;;;;;;3.57;87.83;99138.69;4843187;29;20030;-88
2022/01/10 09:31:15;;;;;;;43.67;21.23;;;;;;;3.59;87.37;99144.59;4855463;29;20030;-88
2022/01/10 09:33:42;;;;;;;36.05;20.98;;;;;;;3.55;87.80;99138.09;4856815;29;20032;-89
2022/01/10 09:36:08;;;;;;;39.55;20.73;;;;;;;3.60;88.00;99150.69;4843944;29;20030;-88
2022/01/10 09:38:34;;;;;;;44.28;23.70;;;;;;;3.62;87.92;99152.13;4842246;29;20491;-88
2022/01/10 09:41:00;;;;;;;48.45;22.58;;;;;;;3.62;88.14;99154.78;4833629;29;20025;-89
2022/01/10 09:43:25;;;;;;;42.85;21.83;;;;;;;3.34;87.85;99116.28;4843713;29;20407;-88
2022/01/10 09:45:53;;;;;;;39.13;20.67;;;;;;;3.65;87.98;99158.81;4864939;29;20246;-88
2022/01/10 09:48:18;;;;;;;43.97;21.42;;;;;;;3.66;87.95;99163.91;4842347;29;20035;-89
2022/01/10 09:50:44;;;;;;;49.10;24.35;;;;;;;3.67;87.66;99164.72;4842902;29;20197;-90
2022/01/10 09:53:11;;;;;;;42.65;23.73;;;;;;;3.67;87.73;99162.88;4826009;29;20117;-89
2022/01/10 09:55:37;;;;;;;47.05;23.88;;;;;;;3.68;87.90;99164.53;4843565;29;20033;-89
2022/01/10 09:58:03;;;;;;;44.00;24.00;;;;;;;3.70;88.22;99173.06;4838978;29;20506;-89
2022/01/10 10:00:29;;;;;;;47.35;22.83;;;;;;;3.69;88.05;99178.56;4837790;29;20034;-89
2022/01/10 10:02:55;;;;;;;52.38;25.25;;;;;;;3.72;88.05;99170.22;4847589;29;20034;-90
2022/01/10 10:05:20;;;;;;;52.10;25.02;;;;;;;3.68;87.66;99169.00;4826294;29;20030;-88
2022/01/10 10:07:46;;;;;;;50.67;25.65;;;;;;;3.74;88.21;99184.03;4829845;29;20034;-89
2022/01/10 10:10:13;;;;;;;59.25;24.20;;;;;;;3.49;87.88;99149.44;4841170;29;20132;-89
2022/01/10 10:12:41;;;;;;;44.40;25.52;;;;;;;3.76;88.02;99196.03;4855493;29;20022;-89
2022/01/10 10:15:09;;;;;;;55.72;24.73;;;;;;;3.72;87.83;99189.53;4839534;23;20050;-86
2022/01/10 10:17:36;;;;;;;58.13;24.92;;;;;;;3.80;87.71;99199.91;4812063;29;20500;-84
2022/01/10 10:20:10;;;;;;;45.33;24.00;;;;;;;3.82;87.52;99201.53;4806509;29;20035;-85
2022/01/10 10:22:39;;;;;;;48.03;24.00;;;;;;;3.84;88.22;99199.53;4791351;29;20103;-83
2022/01/10 10:25:06;;;;;;;52.33;23.77;;;;;;;3.84;88.16;99205.63;4800596;29;20043;-84
2022/01/10 10:27:37;;;;;;;56.33;24.95;;;;;;;3.86;87.68;99213.34;4806688;29;20043;-84
2022/01/10 10:30:10;;;;;;;55.25;26.38;;;;;;;3.83;88.17;99209.25;4787156;29;20535;-85
2022/01/10 10:32:36;;;;;;;71.07;26.35;;;;;;;3.89;87.89;99223.53;4804279;29;20124;-86
2022/01/10 10:35:04;;;;;;;52.83;27.27;;;;;;;3.92;87.87;99225.75;4790435;29;20035;-84
2022/01/10 10:37:30;;;;;;;57.22;25.65;;;;;;;3.93;88.07;99232.66;4804519;29;20035;-84
2022/01/10 10:39:57;;;;;;;60.63;24.58;;;;;;;3.97;87.82;99232.09;4789005;29;20466;-83
2022/01/10 10:42:28;;;;;;;56.13;24.77;;;;;;;3.70;87.61;99178.34;4774004;30;20035;-85
2022/01/10 10:44:54;;;;;;;55.85;26.08;;;;;;;3.93;87.77;99220.28;4788262;30;20036;-86
2022/01/10 10:47:27;;;;;;;51.25;24.90;;;;;;;3.93;88.16;99233.50;4798544;29;20072;-83
2022/01/10 10:49:58;;;;;;;47.80;23.48;;;;;;;3.98;87.32;99240.81;4803836;29;20382;-85
2022/01/10 10:52:31;;;;;;;52.38;23.23;;;;;;;3.89;87.83;99234.88;4791481;29;20046;-84
2022/01/10 10:55:00;;;;;;;54.30;24.52;;;;;;;3.87;88.14;99228.97;4803393;29;20176;-84
2022/01/10 10:57:27;;;;;;;48.22;22.58;;;;;;;3.98;87.96;99238.97;4788837;29;20627;-84
2022/01/10 10:59:53;;;;;;;50.30;23.25;;;;;;;4.06;87.59;99262.59;4789066;29;20043;-83
2022/01/10 11:02:19;;;;;;;51.00;23.23;;;;;;;4.10;87.75;99261.19;4787762;30;20050;-83
2022/01/10 11:04:44;;;;;;;49.17;22.42;;;;;;;4.04;88.20;99253.25;4801499;29;20059;-85
2022/01/10 11:07:11;;;;;;;47.58;21.75;;;;;;;4.14;87.36;99274.81;4772299;30;20039;-85
2022/01/10 11:09:37;;;;;;;47.92;21.02;;;;;;;4.18;87.77;99281.31;4788749;29;20035;-86
2022/01/10 11:12:02;;;;;;;45.92;21.80;;;;;;;4.22;87.66;99285.19;4788122;29;20118;-85
2022/01/10 11:14:28;;;;;;;46.75;21.67;;;;;;;4.25;87.67;99287.47;4797940;29;20051;-85
2022/01/10 11:16:54;;;;;;;49.55;21.48;;;;;;;4.25;87.26;99287.47;4788542;29;20507;-83
2022/01/10 11:19:28;;;;;;;49.10;21.55;;;;;;;4.28;87.44;99297.66;4802953;29;20035;-84
2022/01/10 11:22:07;;;;;;;40.17;20.20;;;;;;;4.27;86.84;99294.19;4794071;29;20035;-85
2022/01/10 11:24:43;;;;;;;48.08;22.50;;;;;;;4.29;87.40;99304.53;4805599;29;20518;-84
2022/01/10 11:27:31;;;;;;;42.63;20.60;;;;;;;4.29;87.15;99308.00;4803815;29;20114;-85
2022/01/10 11:29:57;;;;;;;43.05;20.05;;;;;;;4.32;86.82;99310.25;4805149;29;20586;-86
2022/01/10 11:32:51;;;;;;;41.15;19.08;;;;;;;4.32;87.58;99314.72;4803888;29;20051;-85
2022/01/10 11:35:17;;;;;;;39.40;19.55;;;;;;;4.35;87.21;99320.41;4802940;29;20092;-85
2022/01/10 11:37:44;;;;;;;48.03;19.15;;;;;;;4.23;87.19;99292.94;4804037;29;20493;-85
2022/01/10 11:40:11;;;;;;;34.50;18.13;;;;;;;4.38;86.54;99312.13;4789324;29;20038;-86
2022/01/10 11:42:44;;;;;;;39.53;19.85;;;;;;;4.32;86.88;99307.63;4801935;29;20035;-86
2022/01/10 11:45:12;;;;;;;43.70;18.77;;;;;;;4.41;87.08;99321.47;4802597;29;20039;-84
2022/01/10 11:48:05;;;;;;;45.92;20.08;;;;;;;4.41;87.04;99324.13;4801700;29;20063;-85
2022/01/10 11:50:31;;;;;;;40.00;20.08;;;;;;;4.43;86.93;99322.09;4803776;29;20035;-86
2022/01/10 11:53:01;;;;;;;40.10;18.30;;;;;;;4.44;87.04;99326.34;4786950;29;20042;-84
2022/01/10 11:55:41;;;;;;;39.53;17.73;;;;;;;4.44;86.70;99335.09;4801938;29;20024;-86
2022/01/10 11:58:25;;;;;;;42.17;17.83;;;;;;;4.44;86.71;99335.09;4806693;29;20054;-85
2022/01/10 12:01:03;;;;;;;43.20;19.75;;;;;;;4.46;86.75;99342.81;4800848;29;20043;-86
2022/01/10 12:03:29;;;;;;;59.80;22.40;;;;;;;4.46;86.61;99346.28;4790718;29;20031;-87
2022/01/10 12:05:54;;;;;;;41.70;19.55;;;;;;;4.48;86.30;99340.78;4793374;29;20508;-85
2022/01/10 12:08:19;;;;;;;38.35;19.30;;;;;;;4.49;86.34;99343.25;4801673;29;20039;-84
2022/01/10 12:10:47;;;;;;;35.63;18.58;;;;;;;4.51;86.36;99343.88;4801221;29;20714;-83
2022/01/10 12:13:13;;;;;;;35.15;17.65;;;;;;;4.42;86.60;99337.13;4803484;29;20119;-84
2022/01/10 12:15:40;;;;;;;40.88;18.52;;;;;;;4.53;86.41;99352.41;4788044;29;20381;-82
2022/01/10 12:18:07;;;;;;;39.97;17.65;;;;;;;4.57;86.38;99366.03;4803474;29;20231;-85
2022/01/10 12:20:32;;;;;;;49.05;18.73;;;;;;;4.25;86.54;99316.50;4808935;29;20122;-85
2022/01/10 12:23:00;;;;;;;31.92;16.85;;;;;;;4.47;86.48;99358.50;4804823;29;20077;-86
2022/01/10 12:25:25;;;;;;;34.97;18.05;;;;;;;4.47;85.94;99362.97;4804746;29;20512;-86
2022/01/10 12:27:56;;;;;;;38.08;17.13;;;;;;;4.56;86.16;99383.72;4819678;29;20061;-86
2022/01/10 12:30:25;;;;;;;35.28;16.17;;;;;;;4.57;86.59;99385.38;4819941;29;20731;-86
2022/01/10 12:32:51;;;;;;;33.95;16.80;;;;;;;4.55;86.00;99392.69;4819686;29;20026;-85